sensor_id;sensor_type;location;lat;lon;timestamp;pressure;altitude;pressure_sealevel;temperature;humidity
47524;BME280;33253;42.144;25.884;2023-10-31T00:00:34;100678.78;;;12.84;89.44
47524;BME280;33253;42.144;25.884;2023-10-31T00:02:59;100686.59;;;12.85;89.03
47524;BME280;33253;42.144;25.884;2023-10-31T00:05:25;100681.94;;;13.02;88.68
47524;BME280;33253;42.144;25.884;2023-10-31T00:07:50;100679.88;;;12.92;88.09
47524;BME280;33253;42.144;25.884;2023-10-31T00:10:16;100676.69;;;13.01;88.33
47524;BME280;33253;42.144;25.884;2023-10-31T00:12:42;100673.19;;;12.99;88.22
47524;BME280;33253;42.144;25.884;2023-10-31T00:15:07;100676.06;;;13.08;87.65
47524;BME280;33253;42.144;25.884;2023-10-31T00:17:32;100661.22;;;13.02;87.44
47524;BME280;33253;42.144;25.884;2023-10-31T00:19:58;100662.72;;;12.95;87.12
47524;BME280;33253;42.144;25.884;2023-10-31T00:22:23;100668.06;;;13.00;87.15
47524;BME280;33253;42.144;25.884;2023-10-31T00:24:49;100666.47;;;13.05;85.25
47524;BME280;33253;42.144;25.884;2023-10-31T00:27:14;100662.16;;;13.06;82.99
47524;BME280;33253;42.144;25.884;2023-10-31T00:29:40;100642.09;;;12.99;84.20
47524;BME280;33253;42.144;25.884;2023-10-31T00:32:06;100668.94;;;13.01;85.11
47524;BME280;33253;42.144;25.884;2023-10-31T00:34:31;100653.22;;;12.67;86.27
47524;BME280;33253;42.144;25.884;2023-10-31T00:36:57;100657.84;;;12.49;87.22
47524;BME280;33253;42.144;25.884;2023-10-31T00:39:22;100657.88;;;12.50;87.35
47524;BME280;33253;42.144;25.884;2023-10-31T00:41:48;100644.53;;;12.38;87.54
47524;BME280;33253;42.144;25.884;2023-10-31T00:44:13;100638.19;;;12.28;87.58
47524;BME280;33253;42.144;25.884;2023-10-31T00:46:39;100650.69;;;12.41;87.58
47524;BME280;33253;42.144;25.884;2023-10-31T00:49:05;100649.53;;;12.32;88.08
47524;BME280;33253;42.144;25.884;2023-10-31T00:51:30;100648.78;;;12.36;88.02
47524;BME280;33253;42.144;25.884;2023-10-31T00:53:56;100645.53;;;12.16;88.58
47524;BME280;33253;42.144;25.884;2023-10-31T00:56:41;100647.25;;;12.15;89.22
47524;BME280;33253;42.144;25.884;2023-10-31T00:59:07;100571.00;;;11.79;88.92
47524;BME280;33253;42.144;25.884;2023-10-31T01:01:32;100580.81;;;11.90;89.01
47524;BME280;33253;42.144;25.884;2023-10-31T01:03:57;100647.47;;;12.21;89.27
47524;BME280;33253;42.144;25.884;2023-10-31T01:06:23;100630.00;;;12.16;89.78
47524;BME280;33253;42.144;25.884;2023-10-31T01:08:49;100633.13;;;12.05;90.61
47524;BME280;33253;42.144;25.884;2023-10-31T01:11:14;100640.69;;;11.99;91.89
47524;BME280;33253;42.144;25.884;2023-10-31T01:13:40;100644.25;;;12.03;92.65
47524;BME280;33253;42.144;25.884;2023-10-31T01:16:05;100647.44;;;11.95;96.45
47524;BME280;33253;42.144;25.884;2023-10-31T01:18:31;100549.31;;;11.50;96.44
47524;BME280;33253;42.144;25.884;2023-10-31T01:20:56;100631.44;;;12.07;93.19
47524;BME280;33253;42.144;25.884;2023-10-31T01:23:22;100632.72;;;12.19;89.81
47524;BME280;33253;42.144;25.884;2023-10-31T01:25:48;100570.78;;;11.97;87.36
47524;BME280;33253;42.144;25.884;2023-10-31T01:28:13;100634.53;;;12.21;94.48
47524;BME280;33253;42.144;25.884;2023-10-31T01:30:39;100632.19;;;12.03;96.89
47524;BME280;33253;42.144;25.884;2023-10-31T01:33:04;100635.06;;;11.87;97.88
47524;BME280;33253;42.144;25.884;2023-10-31T01:35:30;100631.84;;;11.68;99.41
47524;BME280;33253;42.144;25.884;2023-10-31T01:37:55;100549.38;;;11.02;100.00
47524;BME280;33253;42.144;25.884;2023-10-31T01:40:21;100615.72;;;11.27;100.00
47524;BME280;33253;42.144;25.884;2023-10-31T01:42:46;100624.34;;;11.27;100.00
47524;BME280;33253;42.144;25.884;2023-10-31T01:45:12;100554.44;;;11.00;100.00
47524;BME280;33253;42.144;25.884;2023-10-31T01:47:37;100595.91;;;11.27;100.00
47524;BME280;33253;42.144;25.884;2023-10-31T01:50:03;100613.63;;;11.41;100.00
47524;BME280;33253;42.144;25.884;2023-10-31T01:52:31;100615.72;;;11.51;100.00
47524;BME280;33253;42.144;25.884;2023-10-31T01:54:58;100623.53;;;11.53;99.34
47524;BME280;33253;42.144;25.884;2023-10-31T01:57:24;100617.03;;;11.64;95.76
47524;BME280;33253;42.144;25.884;2023-10-31T01:59:50;100619.94;;;11.73;91.47
47524;BME280;33253;42.144;25.884;2023-10-31T02:02:16;100604.53;;;11.76;90.40
47524;BME280;33253;42.144;25.884;2023-10-31T02:04:41;100629.31;;;11.95;88.88
47524;BME280;33253;42.144;25.884;2023-10-31T02:07:07;100624.22;;;11.97;87.13
47524;BME280;33253;42.144;25.884;2023-10-31T02:09:32;100569.00;;;11.71;84.79
47524;BME280;33253;42.144;25.884;2023-10-31T02:11:58;100630.00;;;12.16;84.16
47524;BME280;33253;42.144;25.884;2023-10-31T02:14:24;100629.22;;;12.18;83.54
47524;BME280;33253;42.144;25.884;2023-10-31T02:16:49;100630.63;;;12.08;81.80
47524;BME280;33253;42.144;25.884;2023-10-31T02:19:19;100634.03;;;12.07;80.99
47524;BME280;33253;42.144;25.884;2023-10-31T02:21:44;100628.09;;;12.10;82.26
47524;BME280;33253;42.144;25.884;2023-10-31T02:24:10;100558.25;;;11.60;83.01
47524;BME280;33253;42.144;25.884;2023-10-31T02:26:35;100526.53;;;11.38;83.98
47524;BME280;33253;42.144;25.884;2023-10-31T02:29:01;100619.88;;;11.96;84.01
47524;BME280;33253;42.144;25.884;2023-10-31T02:31:27;100619.88;;;11.96;83.91
47524;BME280;33253;42.144;25.884;2023-10-31T02:33:53;100619.94;;;11.97;83.63
47524;BME280;33253;42.144;25.884;2023-10-31T02:36:19;100613.41;;;11.85;83.04
47524;BME280;33253;42.144;25.884;2023-10-31T02:38:45;100603.19;;;11.88;82.05
47524;BME280;33253;42.144;25.884;2023-10-31T02:41:11;100522.69;;;11.27;80.22
47524;BME280;33253;42.144;25.884;2023-10-31T02:43:38;100631.88;;;11.70;79.82
47524;BME280;33253;42.144;25.884;2023-10-31T02:46:03;100629.53;;;11.52;79.88
47524;BME280;33253;42.144;25.884;2023-10-31T02:48:29;100590.75;;;11.27;80.33
47524;BME280;33253;42.144;25.884;2023-10-31T02:50:57;100628.63;;;11.51;80.43
47524;BME280;33253;42.144;25.884;2023-10-31T02:53:23;100625.00;;;11.46;81.67
47524;BME280;33253;42.144;25.884;2023-10-31T02:55:48;100622.91;;;11.11;83.57
47524;BME280;33253;42.144;25.884;2023-10-31T02:58:14;100630.88;;;11.17;84.62
47524;BME280;33253;42.144;25.884;2023-10-31T03:00:39;100626.19;;;11.07;85.27
47524;BME280;33253;42.144;25.884;2023-10-31T03:03:05;100633.84;;;11.04;87.04
47524;BME280;33253;42.144;25.884;2023-10-31T03:05:31;100640.75;;;10.82;89.04
47524;BME280;33253;42.144;25.884;2023-10-31T03:07:56;100620.19;;;10.63;90.62
47524;BME280;33253;42.144;25.884;2023-10-31T03:10:22;100630.78;;;10.69;90.67
47524;BME280;33253;42.144;25.884;2023-10-31T03:12:47;100598.09;;;10.47;90.93
47524;BME280;33253;42.144;25.884;2023-10-31T03:15:33;100618.75;;;10.70;90.62
47524;BME280;33253;42.144;25.884;2023-10-31T03:17:58;100645.53;;;10.72;90.92
47524;BME280;33253;42.144;25.884;2023-10-31T03:20:24;100634.84;;;10.85;90.64
47524;BME280;33253;42.144;25.884;2023-10-31T03:22:49;100563.06;;;10.54;90.23
47524;BME280;33253;42.144;25.884;2023-10-31T03:25:15;100627.31;;;10.91;90.68
47524;BME280;33253;42.144;25.884;2023-10-31T03:27:40;100624.91;;;10.96;90.29
47524;BME280;33253;42.144;25.884;2023-10-31T03:30:06;100628.56;;;11.01;85.94
47524;BME280;33253;42.144;25.884;2023-10-31T03:32:32;100621.06;;;11.09;85.13
47524;BME280;33253;42.144;25.884;2023-10-31T03:34:57;100592.91;;;10.92;85.45
47524;BME280;33253;42.144;25.884;2023-10-31T03:37:23;100618.25;;;11.03;85.63
47524;BME280;33253;42.144;25.884;2023-10-31T03:39:48;100613.59;;;10.92;87.49
47524;BME280;33253;42.144;25.884;2023-10-31T03:42:14;100615.94;;;10.86;89.01
47524;BME280;33253;42.144;25.884;2023-10-31T03:44:39;100575.34;;;10.59;88.40
47524;BME280;33253;42.144;25.884;2023-10-31T03:47:05;100536.31;;;10.51;88.51
47524;BME280;33253;42.144;25.884;2023-10-31T03:49:30;100616.47;;;10.77;88.94
47524;BME280;33253;42.144;25.884;2023-10-31T03:51:56;100604.41;;;10.78;89.44
47524;BME280;33253;42.144;25.884;2023-10-31T03:54:21;100604.84;;;10.89;89.70
47524;BME280;33253;42.144;25.884;2023-10-31T03:56:47;100613.66;;;10.71;89.57
47524;BME280;33253;42.144;25.884;2023-10-31T03:59:13;100618.56;;;10.65;90.90
47524;BME280;33253;42.144;25.884;2023-10-31T04:01:39;100607.28;;;10.63;91.49
47524;BME280;33253;42.144;25.884;2023-10-31T04:04:06;100616.69;;;10.61;90.81
47524;BME280;33253;42.144;25.884;2023-10-31T04:06:31;100609.13;;;10.65;87.47
47524;BME280;33253;42.144;25.884;2023-10-31T04:08:57;100605.09;;;10.72;88.15
47524;BME280;33253;42.144;25.884;2023-10-31T04:11:22;100596.84;;;10.82;88.63
47524;BME280;33253;42.144;25.884;2023-10-31T04:13:48;100588.81;;;10.75;89.02
47524;BME280;33253;42.144;25.884;2023-10-31T04:16:13;100606.31;;;10.82;89.91
47524;BME280;33253;42.144;25.884;2023-10-31T04:18:39;100599.72;;;10.90;89.29
47524;BME280;33253;42.144;25.884;2023-10-31T04:21:04;100608.56;;;10.95;87.91
47524;BME280;33253;42.144;25.884;2023-10-31T04:23:30;100517.53;;;10.56;86.19
47524;BME280;33253;42.144;25.884;2023-10-31T04:25:55;100602.84;;;11.04;84.71
47524;BME280;33253;42.144;25.884;2023-10-31T04:28:21;100600.91;;;10.98;83.60
47524;BME280;33253;42.144;25.884;2023-10-31T04:30:46;100602.47;;;10.95;83.42
47524;BME280;33253;42.144;25.884;2023-10-31T04:33:12;100588.56;;;10.91;83.98
47524;BME280;33253;42.144;25.884;2023-10-31T04:35:37;100577.19;;;10.86;84.58
47524;BME280;33253;42.144;25.884;2023-10-31T04:38:03;100601.09;;;10.80;85.47
47524;BME280;33253;42.144;25.884;2023-10-31T04:40:28;100597.56;;;10.56;86.75
47524;BME280;33253;42.144;25.884;2023-10-31T04:42:54;100528.94;;;10.17;87.38
47524;BME280;33253;42.144;25.884;2023-10-31T04:45:20;100589.16;;;10.39;87.90
47524;BME280;33253;42.144;25.884;2023-10-31T04:47:45;100593.53;;;10.20;90.85
47524;BME280;33253;42.144;25.884;2023-10-31T04:50:11;100555.91;;;9.62;92.94
47524;BME280;33253;42.144;25.884;2023-10-31T04:52:38;100627.06;;;9.78;94.31
47524;BME280;33253;42.144;25.884;2023-10-31T04:55:04;100624.97;;;9.69;94.53
47524;BME280;33253;42.144;25.884;2023-10-31T04:57:29;100618.31;;;9.74;94.40
47524;BME280;33253;42.144;25.884;2023-10-31T04:59:55;100622.06;;;9.61;95.19
47524;BME280;33253;42.144;25.884;2023-10-31T05:02:23;100634.47;;;9.70;95.38
47524;BME280;33253;42.144;25.884;2023-10-31T05:04:49;100627.94;;;9.78;95.00
47524;BME280;33253;42.144;25.884;2023-10-31T05:07:17;100628.19;;;9.63;95.11
47524;BME280;33253;42.144;25.884;2023-10-31T05:09:43;100624.84;;;9.46;96.17
47524;BME280;33253;42.144;25.884;2023-10-31T05:12:08;100638.50;;;9.44;97.44
47524;BME280;33253;42.144;25.884;2023-10-31T05:14:34;100562.56;;;8.96;97.31
47524;BME280;33253;42.144;25.884;2023-10-31T05:17:00;100634.84;;;9.38;98.09
47524;BME280;33253;42.144;25.884;2023-10-31T05:19:25;100631.88;;;9.31;98.56
47524;BME280;33253;42.144;25.884;2023-10-31T05:21:51;100619.69;;;9.27;98.91
47524;BME280;33253;42.144;25.884;2023-10-31T05:24:17;100624.38;;;9.35;98.93
47524;BME280;33253;42.144;25.884;2023-10-31T05:26:42;100628.50;;;9.51;99.00
47524;BME280;33253;42.144;25.884;2023-10-31T05:29:08;100636.72;;;9.62;99.08
47524;BME280;33253;42.144;25.884;2023-10-31T05:31:34;100630.53;;;9.59;99.81
47524;BME280;33253;42.144;25.884;2023-10-31T05:34:01;100554.59;;;9.31;99.89
47524;BME280;33253;42.144;25.884;2023-10-31T05:36:26;100633.03;;;9.98;99.71
47524;BME280;33253;42.144;25.884;2023-10-31T05:38:53;100634.38;;;10.09;99.28
47524;BME280;33253;42.144;25.884;2023-10-31T05:41:19;100636.66;;;10.23;97.38
47524;BME280;33253;42.144;25.884;2023-10-31T05:43:44;100615.72;;;10.36;95.09
47524;BME280;33253;42.144;25.884;2023-10-31T05:46:10;100635.00;;;10.67;91.81
47524;BME280;33253;42.144;25.884;2023-10-31T05:48:39;100644.28;;;10.84;90.68
47524;BME280;33253;42.144;25.884;2023-10-31T05:51:14;100643.81;;;10.95;91.61
47524;BME280;33253;42.144;25.884;2023-10-31T05:53:41;100640.75;;;11.05;90.09
47524;BME280;33253;42.144;25.884;2023-10-31T05:56:07;100633.91;;;11.06;90.25
47524;BME280;33253;42.144;25.884;2023-10-31T05:58:34;100643.69;;;11.14;91.54
47524;BME280;33253;42.144;25.884;2023-10-31T06:00:59;100573.00;;;10.65;94.16
47524;BME280;33253;42.144;25.884;2023-10-31T06:03:25;100644.38;;;10.65;96.86
47524;BME280;33253;42.144;25.884;2023-10-31T06:05:50;100639.38;;;10.68;97.08
47524;BME280;33253;42.144;25.884;2023-10-31T06:08:16;100649.50;;;10.86;95.86
47524;BME280;33253;42.144;25.884;2023-10-31T06:10:42;100645.97;;;10.84;97.20
47524;BME280;33253;42.144;25.884;2023-10-31T06:13:07;100621.81;;;10.82;96.85
47524;BME280;33253;42.144;25.884;2023-10-31T06:15:35;100553.13;;;10.42;99.22
47524;BME280;33253;42.144;25.884;2023-10-31T06:18:01;100619.84;;;10.99;99.55
47524;BME280;33253;42.144;25.884;2023-10-31T06:20:28;100631.94;;;11.00;100.00
47524;BME280;33253;42.144;25.884;2023-10-31T06:22:54;100640.53;;;10.99;100.00
47524;BME280;33253;42.144;25.884;2023-10-31T06:25:19;100639.72;;;11.23;100.00
47524;BME280;33253;42.144;25.884;2023-10-31T06:27:44;100634.81;;;11.55;100.00
47524;BME280;33253;42.144;25.884;2023-10-31T06:30:10;100579.38;;;11.46;99.07
47524;BME280;33253;42.144;25.884;2023-10-31T06:32:36;100641.66;;;12.03;98.81
47524;BME280;33253;42.144;25.884;2023-10-31T06:35:02;100643.91;;;12.18;97.66
47524;BME280;33253;42.144;25.884;2023-10-31T06:37:28;100633.03;;;12.29;97.03
47524;BME280;33253;42.144;25.884;2023-10-31T06:39:54;100645.72;;;12.48;96.83
47524;BME280;33253;42.144;25.884;2023-10-31T06:42:20;100634.06;;;12.62;96.41
47524;BME280;33253;42.144;25.884;2023-10-31T06:44:45;100632.94;;;12.81;97.82
47524;BME280;33253;42.144;25.884;2023-10-31T06:47:11;100622.88;;;12.92;97.01
47524;BME280;33253;42.144;25.884;2023-10-31T06:49:36;100626.66;;;13.03;95.73
47524;BME280;33253;42.144;25.884;2023-10-31T06:52:02;100640.06;;;13.17;95.45
47524;BME280;33253;42.144;25.884;2023-10-31T06:54:28;100638.69;;;13.30;94.08
47524;BME280;33253;42.144;25.884;2023-10-31T06:56:53;100632.25;;;13.46;93.78
47524;BME280;33253;42.144;25.884;2023-10-31T06:59:19;100559.81;;;13.22;92.36
47524;BME280;33253;42.144;25.884;2023-10-31T07:01:44;100608.41;;;13.59;91.79
47524;BME280;33253;42.144;25.884;2023-10-31T07:04:13;100622.06;;;13.52;92.65
47524;BME280;33253;42.144;25.884;2023-10-31T07:06:39;100536.19;;;13.11;92.06
47524;BME280;33253;42.144;25.884;2023-10-31T07:09:04;100630.97;;;13.62;91.69
47524;BME280;33253;42.144;25.884;2023-10-31T07:11:31;100624.22;;;13.69;91.63
47524;BME280;33253;42.144;25.884;2023-10-31T07:14:00;100625.34;;;13.79;92.09
47524;BME280;33253;42.144;25.884;2023-10-31T07:16:27;100623.72;;;13.84;92.15
47524;BME280;33253;42.144;25.884;2023-10-31T07:18:53;100625.84;;;13.99;93.40
47524;BME280;33253;42.144;25.884;2023-10-31T07:21:18;100560.22;;;13.69;93.80
47524;BME280;33253;42.144;25.884;2023-10-31T07:23:44;100617.41;;;14.07;94.62
47524;BME280;33253;42.144;25.884;2023-10-31T07:26:10;100621.03;;;14.14;94.75
47524;BME280;33253;42.144;25.884;2023-10-31T07:28:35;100622.03;;;14.19;99.12
47524;BME280;33253;42.144;25.884;2023-10-31T07:31:01;100631.41;;;14.14;100.00
47524;BME280;33253;42.144;25.884;2023-10-31T07:33:27;100563.75;;;13.71;100.00
47524;BME280;33253;42.144;25.884;2023-10-31T07:35:52;100616.84;;;14.19;100.00
47524;BME280;33253;42.144;25.884;2023-10-31T07:38:18;100614.44;;;14.27;100.00
47524;BME280;33253;42.144;25.884;2023-10-31T07:40:43;100612.22;;;14.44;100.00
47524;BME280;33253;42.144;25.884;2023-10-31T07:43:09;100618.97;;;14.36;100.00
47524;BME280;33253;42.144;25.884;2023-10-31T07:45:34;100627.94;;;14.14;100.00
47524;BME280;33253;42.144;25.884;2023-10-31T07:48:01;100629.50;;;14.42;100.00
47524;BME280;33253;42.144;25.884;2023-10-31T07:50:26;100630.81;;;14.61;100.00
47524;BME280;33253;42.144;25.884;2023-10-31T07:52:52;100613.06;;;14.80;100.00
47524;BME280;33253;42.144;25.884;2023-10-31T07:55:18;100613.56;;;15.03;100.00
47524;BME280;33253;42.144;25.884;2023-10-31T07:57:45;100618.41;;;15.29;100.00
47524;BME280;33253;42.144;25.884;2023-10-31T08:00:11;100621.47;;;15.52;100.00
47524;BME280;33253;42.144;25.884;2023-10-31T08:02:37;100615.56;;;15.61;100.00
47524;BME280;33253;42.144;25.884;2023-10-31T08:05:02;100588.81;;;15.69;100.00
47524;BME280;33253;42.144;25.884;2023-10-31T08:07:28;100385.03;;;14.69;100.00
47524;BME280;33253;42.144;25.884;2023-10-31T08:09:56;100543.16;;;15.87;100.00
47524;BME280;33253;42.144;25.884;2023-10-31T08:12:21;100602.84;;;16.28;100.00
47524;BME280;33253;42.144;25.884;2023-10-31T08:14:47;100596.97;;;16.42;100.00
47524;BME280;33253;42.144;25.884;2023-10-31T08:17:12;100598.09;;;16.59;100.00
47524;BME280;33253;42.144;25.884;2023-10-31T08:19:38;100592.28;;;16.77;100.00
47524;BME280;33253;42.144;25.884;2023-10-31T08:22:03;100580.97;;;16.77;100.00
47524;BME280;33253;42.144;25.884;2023-10-31T08:24:28;100579.44;;;16.91;100.00
47524;BME280;33253;42.144;25.884;2023-10-31T08:26:54;100575.22;;;17.01;100.00
47524;BME280;33253;42.144;25.884;2023-10-31T08:29:19;100571.09;;;17.20;100.00
47524;BME280;33253;42.144;25.884;2023-10-31T08:31:45;100573.78;;;17.28;100.00
47524;BME280;33253;42.144;25.884;2023-10-31T08:34:10;100576.59;;;17.46;100.00
47524;BME280;33253;42.144;25.884;2023-10-31T08:36:36;100518.91;;;17.22;100.00
47524;BME280;33253;42.144;25.884;2023-10-31T08:39:02;100577.56;;;17.56;100.00
47524;BME280;33253;42.144;25.884;2023-10-31T08:41:28;100569.81;;;17.64;100.00
47524;BME280;33253;42.144;25.884;2023-10-31T08:43:54;100572.59;;;17.83;100.00
47524;BME280;33253;42.144;25.884;2023-10-31T08:46:19;100570.16;;;18.00;100.00
47524;BME280;33253;42.144;25.884;2023-10-31T08:48:45;100515.97;;;17.78;100.00
47524;BME280;33253;42.144;25.884;2023-10-31T08:51:10;100517.00;;;17.96;100.00
47524;BME280;33253;42.144;25.884;2023-10-31T08:53:36;100558.19;;;18.30;100.00
47524;BME280;33253;42.144;25.884;2023-10-31T08:56:01;100534.63;;;18.23;100.00
47524;BME280;33253;42.144;25.884;2023-10-31T08:58:27;100534.69;;;18.39;100.00
47524;BME280;33253;42.144;25.884;2023-10-31T09:00:54;100531.19;;;18.35;100.00
47524;BME280;33253;42.144;25.884;2023-10-31T09:03:19;100527.78;;;18.49;100.00
47524;BME280;33253;42.144;25.884;2023-10-31T09:05:45;100522.56;;;18.46;100.00
47524;BME280;33253;42.144;25.884;2023-10-31T09:08:10;100517.41;;;18.59;100.00
47524;BME280;33253;42.144;25.884;2023-10-31T09:10:36;100509.56;;;18.58;100.00
47524;BME280;33253;42.144;25.884;2023-10-31T09:13:06;100466.75;;;18.37;100.00
47524;BME280;33253;42.144;25.884;2023-10-31T09:15:31;100490.34;;;18.56;100.00
47524;BME280;33253;42.144;25.884;2023-10-31T09:17:57;100438.00;;;18.37;100.00
47524;BME280;33253;42.144;25.884;2023-10-31T09:20:22;100487.84;;;18.85;100.00
47524;BME280;33253;42.144;25.884;2023-10-31T09:22:48;100475.69;;;18.94;100.00
47524;BME280;33253;42.144;25.884;2023-10-31T09:25:14;100473.97;;;18.97;100.00
47524;BME280;33253;42.144;25.884;2023-10-31T09:27:41;100467.00;;;19.02;100.00
47524;BME280;33253;42.144;25.884;2023-10-31T09:30:07;100462.66;;;19.14;100.00
47524;BME280;33253;42.144;25.884;2023-10-31T09:32:32;100395.47;;;18.91;100.00
47524;BME280;33253;42.144;25.884;2023-10-31T09:34:58;100460.94;;;19.34;100.00
47524;BME280;33253;42.144;25.884;2023-10-31T09:37:24;100423.41;;;19.28;100.00
47524;BME280;33253;42.144;25.884;2023-10-31T09:39:49;100440.00;;;19.54;99.44
47524;BME280;33253;42.144;25.884;2023-10-31T09:42:15;100429.53;;;19.54;98.76
47524;BME280;33253;42.144;25.884;2023-10-31T09:44:40;100406.81;;;19.22;100.00
47524;BME280;33253;42.144;25.884;2023-10-31T09:47:06;100412.94;;;19.38;99.41
47524;BME280;33253;42.144;25.884;2023-10-31T09:49:31;100412.94;;;19.62;98.64
47524;BME280;33253;42.144;25.884;2023-10-31T09:51:57;100421.63;;;19.75;96.50
47524;BME280;33253;42.144;25.884;2023-10-31T09:54:25;100340.47;;;19.67;94.50
47524;BME280;33253;42.144;25.884;2023-10-31T09:56:51;100399.69;;;20.28;92.82
47524;BME280;33253;42.144;25.884;2023-10-31T09:59:17;100397.88;;;20.41;90.45
47524;BME280;33253;42.144;25.884;2023-10-31T10:01:42;100403.00;;;20.60;89.00
47524;BME280;33253;42.144;25.884;2023-10-31T10:04:09;100402.91;;;20.88;88.05
47524;BME280;33253;42.144;25.884;2023-10-31T10:06:34;100396.72;;;20.96;87.34
47524;BME280;33253;42.144;25.884;2023-10-31T10:09:00;100402.81;;;21.00;86.43
47524;BME280;33253;42.144;25.884;2023-10-31T10:11:31;100373.06;;;21.03;88.05
47524;BME280;33253;42.144;25.884;2023-10-31T10:13:57;100366.78;;;21.19;87.29
47524;BME280;33253;42.144;25.884;2023-10-31T10:16:32;100317.13;;;20.94;84.86
47524;BME280;33253;42.144;25.884;2023-10-31T10:19:19;100363.06;;;21.42;85.97
47524;BME280;33253;42.144;25.884;2023-10-31T10:21:50;100351.72;;;21.41;84.22
47524;BME280;33253;42.144;25.884;2023-10-31T10:24:17;100349.03;;;21.44;83.16
47524;BME280;33253;42.144;25.884;2023-10-31T10:26:43;100348.94;;;21.57;82.91
47524;BME280;33253;42.144;25.884;2023-10-31T10:29:09;100349.72;;;21.70;81.80
47524;BME280;33253;42.144;25.884;2023-10-31T10:31:36;100336.44;;;21.79;81.38
47524;BME280;33253;42.144;25.884;2023-10-31T10:34:01;100326.66;;;21.92;79.66
47524;BME280;33253;42.144;25.884;2023-10-31T10:36:27;100332.59;;;22.09;78.30
47524;BME280;33253;42.144;25.884;2023-10-31T10:38:57;100348.16;;;22.25;77.54
47524;BME280;33253;42.144;25.884;2023-10-31T10:41:27;100338.44;;;22.30;76.87
47524;BME280;33253;42.144;25.884;2023-10-31T10:43:57;100340.06;;;22.43;76.09
47524;BME280;33253;42.144;25.884;2023-10-31T10:46:35;100277.09;;;22.28;75.73
47524;BME280;33253;42.144;25.884;2023-10-31T10:49:06;100307.41;;;22.55;75.02
47524;BME280;33253;42.144;25.884;2023-10-31T10:51:43;100277.88;;;22.38;74.27
47524;BME280;33253;42.144;25.884;2023-10-31T10:54:15;100308.22;;;22.62;73.01
47524;BME280;33253;42.144;25.884;2023-10-31T10:56:50;100312.59;;;22.61;72.72
47524;BME280;33253;42.144;25.884;2023-10-31T10:59:21;100301.88;;;22.75;71.83
47524;BME280;33253;42.144;25.884;2023-10-31T11:01:55;100292.88;;;22.87;72.11
47524;BME280;33253;42.144;25.884;2023-10-31T11:04:21;100278.16;;;22.77;68.29
47524;BME280;33253;42.144;25.884;2023-10-31T11:06:47;100284.91;;;22.92;69.01
47524;BME280;33253;42.144;25.884;2023-10-31T11:09:13;100258.56;;;22.93;67.16
47524;BME280;33253;42.144;25.884;2023-10-31T11:11:40;100254.88;;;23.04;67.29
47524;BME280;33253;42.144;25.884;2023-10-31T11:14:06;100257.25;;;23.19;66.67
47524;BME280;33253;42.144;25.884;2023-10-31T11:16:45;100243.88;;;23.30;64.83
47524;BME280;33253;42.144;25.884;2023-10-31T11:19:13;100224.78;;;23.19;65.47
47524;BME280;33253;42.144;25.884;2023-10-31T11:21:56;100239.09;;;23.51;65.54
47524;BME280;33253;42.144;25.884;2023-10-31T11:24:22;100234.47;;;23.62;64.51
47524;BME280;33253;42.144;25.884;2023-10-31T11:26:51;100190.97;;;23.41;63.39
47524;BME280;33253;42.144;25.884;2023-10-31T11:29:17;100217.13;;;23.52;62.85
47524;BME280;33253;42.144;25.884;2023-10-31T11:31:43;100217.63;;;23.69;62.82
47524;BME280;33253;42.144;25.884;2023-10-31T11:34:08;100194.84;;;23.67;63.14
47524;BME280;33253;42.144;25.884;2023-10-31T11:36:37;100146.16;;;23.44;62.70
47524;BME280;33253;42.144;25.884;2023-10-31T11:39:13;100146.09;;;23.46;61.77
47524;BME280;33253;42.144;25.884;2023-10-31T11:41:39;100204.88;;;23.92;60.91
47524;BME280;33253;42.144;25.884;2023-10-31T11:44:05;100192.84;;;23.78;59.91
47524;BME280;33253;42.144;25.884;2023-10-31T11:46:30;100048.53;;;23.09;59.12
47524;BME280;33253;42.144;25.884;2023-10-31T11:48:56;100176.34;;;24.09;59.69
47524;BME280;33253;42.144;25.884;2023-10-31T11:51:22;100163.88;;;24.16;59.69
47524;BME280;33253;42.144;25.884;2023-10-31T11:53:49;100166.59;;;24.11;59.15
47524;BME280;33253;42.144;25.884;2023-10-31T11:56:17;100162.28;;;24.09;59.66
47524;BME280;33253;42.144;25.884;2023-10-31T11:58:43;100090.97;;;23.75;59.05
47524;BME280;33253;42.144;25.884;2023-10-31T12:01:10;100137.44;;;24.17;58.20
47524;BME280;33253;42.144;25.884;2023-10-31T12:03:43;100126.78;;;24.22;55.09
47524;BME280;33253;42.144;25.884;2023-10-31T12:06:13;100151.06;;;24.36;55.51
47524;BME280;33253;42.144;25.884;2023-10-31T12:08:43;100145.69;;;24.39;55.96
47524;BME280;33253;42.144;25.884;2023-10-31T12:13:37;100125.69;;;24.31;56.22
47524;BME280;33253;42.144;25.884;2023-10-31T12:16:04;100127.59;;;24.26;57.05
47524;BME280;33253;42.144;25.884;2023-10-31T12:18:33;100142.41;;;24.31;55.66
47524;BME280;33253;42.144;25.884;2023-10-31T12:20:58;100130.13;;;24.30;56.19
47524;BME280;33253;42.144;25.884;2023-10-31T12:23:24;100128.59;;;24.20;56.28
47524;BME280;33253;42.144;25.884;2023-10-31T12:25:50;100130.22;;;24.26;56.98
47524;BME280;33253;42.144;25.884;2023-10-31T12:28:17;100102.47;;;24.11;57.42
47524;BME280;33253;42.144;25.884;2023-10-31T12:30:50;100121.75;;;24.13;56.78
47524;BME280;33253;42.144;25.884;2023-10-31T12:33:17;100060.94;;;23.81;57.38
47524;BME280;33253;42.144;25.884;2023-10-31T12:35:44;100095.66;;;24.02;58.15